sensor_id;sensor_type;location;lat;lon;timestamp;P1;durP1;ratioP1;P2;durP2;ratioP2
9176;SDS011;4623;54.310;10.112;2022-12-29T00:00:02;3.03;;;2.83;;
9176;SDS011;4623;54.310;10.112;2022-12-29T00:02:29;3.10;;;2.90;;
9176;SDS011;4623;54.310;10.112;2022-12-29T00:04:54;3.63;;;3.33;;
9176;SDS011;4623;54.310;10.112;2022-12-29T00:07:20;3.77;;;3.47;;
9176;SDS011;4623;54.310;10.112;2022-12-29T00:09:45;3.60;;;3.30;;
9176;SDS011;4623;54.310;10.112;2022-12-29T00:12:11;3.87;;;3.57;;
9176;SDS011;4623;54.310;10.112;2022-12-29T00:14:37;4.07;;;3.77;;
9176;SDS011;4623;54.310;10.112;2022-12-29T00:17:21;4.00;;;3.70;;
9176;SDS011;4623;54.310;10.112;2022-12-29T00:19:46;4.37;;;4.00;;
9176;SDS011;4623;54.310;10.112;2022-12-29T00:22:30;3.90;;;3.43;;
9176;SDS011;4623;54.310;10.112;2022-12-29T00:25:14;4.30;;;3.90;;
9176;SDS011;4623;54.310;10.112;2022-12-29T00:27:58;4.10;;;3.73;;
9176;SDS011;4623;54.310;10.112;2022-12-29T00:30:42;4.77;;;4.30;;
9176;SDS011;4623;54.310;10.112;2022-12-29T00:33:30;4.47;;;4.07;;
9176;SDS011;4623;54.310;10.112;2022-12-29T00:38:53;3.87;;;3.57;;
9176;SDS011;4623;54.310;10.112;2022-12-29T00:41:41;4.30;;;3.90;;
9176;SDS011;4623;54.310;10.112;2022-12-29T00:44:25;3.87;;;3.57;;
9176;SDS011;4623;54.310;10.112;2022-12-29T00:46:50;4.80;;;3.87;;
9176;SDS011;4623;54.310;10.112;2022-12-29T00:49:16;4.73;;;3.77;;
9176;SDS011;4623;54.310;10.112;2022-12-29T00:54:29;4.23;;;3.93;;
9176;SDS011;4623;54.310;10.112;2022-12-29T00:56:56;4.30;;;3.90;;
9176;SDS011;4623;54.310;10.112;2022-12-29T00:59:22;4.10;;;3.80;;
9176;SDS011;4623;54.310;10.112;2022-12-29T01:01:49;4.03;;;3.73;;
9176;SDS011;4623;54.310;10.112;2022-12-29T01:04:15;4.50;;;4.10;;
9176;SDS011;4623;54.310;10.112;2022-12-29T01:06:41;4.23;;;3.93;;
9176;SDS011;4623;54.310;10.112;2022-12-29T01:09:07;4.43;;;4.13;;
9176;SDS011;4623;54.310;10.112;2022-12-29T01:11:52;4.23;;;3.90;;
9176;SDS011;4623;54.310;10.112;2022-12-29T01:14:18;5.50;;;4.27;;
9176;SDS011;4623;54.310;10.112;2022-12-29T01:16:44;4.13;;;3.83;;
9176;SDS011;4623;54.310;10.112;2022-12-29T01:19:10;5.17;;;4.83;;
9176;SDS011;4623;54.310;10.112;2022-12-29T01:21:36;4.53;;;4.17;;
9176;SDS011;4623;54.310;10.112;2022-12-29T01:24:02;4.83;;;4.43;;
9176;SDS011;4623;54.310;10.112;2022-12-29T01:26:27;4.83;;;4.43;;
9176;SDS011;4623;54.310;10.112;2022-12-29T01:28:53;4.90;;;4.60;;
9176;SDS011;4623;54.310;10.112;2022-12-29T01:31:18;4.97;;;4.67;;
9176;SDS011;4623;54.310;10.112;2022-12-29T01:33:44;5.70;;;5.00;;
9176;SDS011;4623;54.310;10.112;2022-12-29T01:36:11;5.37;;;4.97;;
9176;SDS011;4623;54.310;10.112;2022-12-29T01:38:38;5.30;;;4.90;;
9176;SDS011;4623;54.310;10.112;2022-12-29T01:41:05;5.40;;;4.90;;
9176;SDS011;4623;54.310;10.112;2022-12-29T01:43:41;6.13;;;5.63;;
9176;SDS011;4623;54.310;10.112;2022-12-29T01:46:23;5.53;;;4.63;;
9176;SDS011;4623;54.310;10.112;2022-12-29T01:49:02;5.37;;;4.57;;
9176;SDS011;4623;54.310;10.112;2022-12-29T01:51:33;5.40;;;4.57;;
9176;SDS011;4623;54.310;10.112;2022-12-29T01:54:04;5.00;;;4.60;;
9176;SDS011;4623;54.310;10.112;2022-12-29T01:56:34;4.60;;;4.30;;
9176;SDS011;4623;54.310;10.112;2022-12-29T01:59:02;5.73;;;5.23;;
9176;SDS011;4623;54.310;10.112;2022-12-29T02:01:32;5.93;;;4.23;;
9176;SDS011;4623;54.310;10.112;2022-12-29T02:03:58;5.07;;;4.67;;
9176;SDS011;4623;54.310;10.112;2022-12-29T02:06:26;5.47;;;4.97;;
9176;SDS011;4623;54.310;10.112;2022-12-29T02:08:56;4.57;;;4.17;;
9176;SDS011;4623;54.310;10.112;2022-12-29T02:11:23;5.20;;;4.80;;
9176;SDS011;4623;54.310;10.112;2022-12-29T02:13:52;4.73;;;4.33;;
9176;SDS011;4623;54.310;10.112;2022-12-29T02:24:43;4.70;;;4.30;;
9176;SDS011;4623;54.310;10.112;2022-12-29T02:27:41;5.47;;;4.97;;
9176;SDS011;4623;54.310;10.112;2022-12-29T02:36:07;4.33;;;4.03;;
9176;SDS011;4623;54.310;10.112;2022-12-29T02:38:48;4.30;;;4.00;;
9176;SDS011;4623;54.310;10.112;2022-12-29T02:41:32;4.83;;;4.53;;
9176;SDS011;4623;54.310;10.112;2022-12-29T02:47:03;4.77;;;4.37;;
9176;SDS011;4623;54.310;10.112;2022-12-29T02:49:38;4.93;;;4.60;;
9176;SDS011;4623;54.310;10.112;2022-12-29T02:52:19;5.83;;;5.43;;
9176;SDS011;4623;54.310;10.112;2022-12-29T02:54:55;5.40;;;5.00;;
9176;SDS011;4623;54.310;10.112;2022-12-29T02:59:53;4.63;;;4.33;;
9176;SDS011;4623;54.310;10.112;2022-12-29T03:02:38;5.80;;;4.77;;
9176;SDS011;4623;54.310;10.112;2022-12-29T03:05:37;4.83;;;4.40;;
9176;SDS011;4623;54.310;10.112;2022-12-29T03:08:27;5.43;;;5.03;;
9176;SDS011;4623;54.310;10.112;2022-12-29T03:11:02;4.90;;;4.60;;
9176;SDS011;4623;54.310;10.112;2022-12-29T03:13:43;4.97;;;4.63;;
9176;SDS011;4623;54.310;10.112;2022-12-29T03:19:26;5.67;;;5.17;;
9176;SDS011;4623;54.310;10.112;2022-12-29T03:22:02;4.90;;;4.47;;
9176;SDS011;4623;54.310;10.112;2022-12-29T03:27:37;5.23;;;4.83;;
9176;SDS011;4623;54.310;10.112;2022-12-29T03:30:05;4.53;;;4.23;;
9176;SDS011;4623;54.310;10.112;2022-12-29T03:32:33;5.40;;;4.90;;
9176;SDS011;4623;54.310;10.112;2022-12-29T03:35:02;5.03;;;4.63;;
9176;SDS011;4623;54.310;10.112;2022-12-29T03:37:40;4.33;;;4.03;;
9176;SDS011;4623;54.310;10.112;2022-12-29T03:40:10;4.70;;;4.40;;
9176;SDS011;4623;54.310;10.112;2022-12-29T03:42:36;4.97;;;4.50;;
9176;SDS011;4623;54.310;10.112;2022-12-29T03:45:04;4.47;;;4.17;;
9176;SDS011;4623;54.310;10.112;2022-12-29T03:47:32;5.00;;;4.70;;
9176;SDS011;4623;54.310;10.112;2022-12-29T03:49:58;5.13;;;4.73;;
9176;SDS011;4623;54.310;10.112;2022-12-29T03:52:23;4.70;;;4.40;;
9176;SDS011;4623;54.310;10.112;2022-12-29T03:54:49;4.90;;;4.50;;
9176;SDS011;4623;54.310;10.112;2022-12-29T03:57:14;7.87;;;4.13;;
9176;SDS011;4623;54.310;10.112;2022-12-29T03:59:40;4.77;;;4.37;;
9176;SDS011;4623;54.310;10.112;2022-12-29T04:02:05;4.23;;;3.93;;
9176;SDS011;4623;54.310;10.112;2022-12-29T04:04:31;5.73;;;4.23;;
9176;SDS011;4623;54.310;10.112;2022-12-29T04:06:56;4.70;;;4.30;;
9176;SDS011;4623;54.310;10.112;2022-12-29T04:09:21;4.80;;;4.50;;
9176;SDS011;4623;54.310;10.112;2022-12-29T04:11:47;4.57;;;4.27;;
9176;SDS011;4623;54.310;10.112;2022-12-29T04:14:13;5.10;;;4.40;;
9176;SDS011;4623;54.310;10.112;2022-12-29T04:16:38;4.53;;;4.23;;
9176;SDS011;4623;54.310;10.112;2022-12-29T04:19:07;5.83;;;4.77;;
9176;SDS011;4623;54.310;10.112;2022-12-29T04:21:33;4.67;;;4.37;;
9176;SDS011;4623;54.310;10.112;2022-12-29T04:23:59;4.70;;;4.40;;
9176;SDS011;4623;54.310;10.112;2022-12-29T04:26:24;4.97;;;4.33;;
9176;SDS011;4623;54.310;10.112;2022-12-29T04:28:50;4.83;;;4.43;;
9176;SDS011;4623;54.310;10.112;2022-12-29T04:31:16;4.73;;;4.33;;
9176;SDS011;4623;54.310;10.112;2022-12-29T04:33:41;4.80;;;4.43;;
9176;SDS011;4623;54.310;10.112;2022-12-29T04:36:07;4.53;;;4.20;;
9176;SDS011;4623;54.310;10.112;2022-12-29T04:38:32;4.90;;;4.40;;
9176;SDS011;4623;54.310;10.112;2022-12-29T04:40:59;4.63;;;4.33;;
9176;SDS011;4623;54.310;10.112;2022-12-29T04:43:26;4.63;;;4.33;;
9176;SDS011;4623;54.310;10.112;2022-12-29T04:45:52;4.30;;;4.00;;
9176;SDS011;4623;54.310;10.112;2022-12-29T04:48:18;6.43;;;4.00;;
9176;SDS011;4623;54.310;10.112;2022-12-29T04:50:44;4.73;;;4.40;;
9176;SDS011;4623;54.310;10.112;2022-12-29T04:53:12;4.57;;;4.23;;
9176;SDS011;4623;54.310;10.112;2022-12-29T04:55:38;4.30;;;4.00;;
9176;SDS011;4623;54.310;10.112;2022-12-29T04:58:03;4.77;;;4.47;;
9176;SDS011;4623;54.310;10.112;2022-12-29T05:00:29;4.97;;;4.57;;
9176;SDS011;4623;54.310;10.112;2022-12-29T05:02:54;4.37;;;3.97;;
9176;SDS011;4623;54.310;10.112;2022-12-29T05:05:20;4.63;;;4.17;;
9176;SDS011;4623;54.310;10.112;2022-12-29T05:07:45;4.50;;;4.07;;
9176;SDS011;4623;54.310;10.112;2022-12-29T05:10:11;5.30;;;3.87;;
9176;SDS011;4623;54.310;10.112;2022-12-29T05:12:36;4.20;;;3.90;;
9176;SDS011;4623;54.310;10.112;2022-12-29T05:15:03;4.17;;;3.87;;
9176;SDS011;4623;54.310;10.112;2022-12-29T05:17:30;4.23;;;3.93;;
9176;SDS011;4623;54.310;10.112;2022-12-29T05:19:55;4.03;;;3.63;;
9176;SDS011;4623;54.310;10.112;2022-12-29T05:22:21;3.73;;;3.47;;
9176;SDS011;4623;54.310;10.112;2022-12-29T05:24:47;3.90;;;3.60;;
9176;SDS011;4623;54.310;10.112;2022-12-29T05:27:12;3.97;;;3.70;;
9176;SDS011;4623;54.310;10.112;2022-12-29T05:29:38;3.93;;;3.63;;
9176;SDS011;4623;54.310;10.112;2022-12-29T05:32:04;3.80;;;3.50;;
9176;SDS011;4623;54.310;10.112;2022-12-29T05:34:29;4.43;;;3.63;;
9176;SDS011;4623;54.310;10.112;2022-12-29T05:36:55;4.70;;;4.23;;
9176;SDS011;4623;54.310;10.112;2022-12-29T05:39:20;4.90;;;4.50;;
9176;SDS011;4623;54.310;10.112;2022-12-29T05:41:46;3.87;;;3.57;;
9176;SDS011;4623;54.310;10.112;2022-12-29T05:44:11;4.17;;;3.87;;
9176;SDS011;4623;54.310;10.112;2022-12-29T05:46:37;3.80;;;3.57;;
9176;SDS011;4623;54.310;10.112;2022-12-29T05:49:03;3.73;;;3.43;;
9176;SDS011;4623;54.310;10.112;2022-12-29T05:51:29;4.00;;;3.30;;
9176;SDS011;4623;54.310;10.112;2022-12-29T05:53:55;3.63;;;3.43;;
9176;SDS011;4623;54.310;10.112;2022-12-29T05:56:20;5.07;;;3.50;;
9176;SDS011;4623;54.310;10.112;2022-12-29T05:58:46;3.27;;;2.97;;
9176;SDS011;4623;54.310;10.112;2022-12-29T06:01:11;4.10;;;3.07;;
9176;SDS011;4623;54.310;10.112;2022-12-29T06:03:37;3.07;;;2.87;;
9176;SDS011;4623;54.310;10.112;2022-12-29T06:06:02;3.37;;;3.10;;
9176;SDS011;4623;54.310;10.112;2022-12-29T06:08:28;3.07;;;2.83;;
9176;SDS011;4623;54.310;10.112;2022-12-29T06:10:54;2.73;;;2.60;;
9176;SDS011;4623;54.310;10.112;2022-12-29T06:13:19;2.83;;;2.63;;
9176;SDS011;4623;54.310;10.112;2022-12-29T06:15:45;2.50;;;2.40;;
9176;SDS011;4623;54.310;10.112;2022-12-29T06:18:13;2.80;;;2.40;;
9176;SDS011;4623;54.310;10.112;2022-12-29T06:20:38;2.27;;;2.17;;
9176;SDS011;4623;54.310;10.112;2022-12-29T06:23:04;2.60;;;2.40;;
9176;SDS011;4623;54.310;10.112;2022-12-29T06:25:29;2.40;;;2.30;;
9176;SDS011;4623;54.310;10.112;2022-12-29T06:27:57;2.90;;;2.70;;
9176;SDS011;4623;54.310;10.112;2022-12-29T06:30:23;3.17;;;2.53;;
9176;SDS011;4623;54.310;10.112;2022-12-29T06:32:48;2.63;;;2.43;;
9176;SDS011;4623;54.310;10.112;2022-12-29T06:35:14;3.00;;;2.80;;
9176;SDS011;4623;54.310;10.112;2022-12-29T06:37:39;2.83;;;2.63;;
9176;SDS011;4623;54.310;10.112;2022-12-29T06:40:05;3.00;;;2.80;;
9176;SDS011;4623;54.310;10.112;2022-12-29T06:42:31;3.37;;;2.77;;
9176;SDS011;4623;54.310;10.112;2022-12-29T06:44:56;5.13;;;2.50;;
9176;SDS011;4623;54.310;10.112;2022-12-29T06:47:23;2.80;;;2.50;;
9176;SDS011;4623;54.310;10.112;2022-12-29T06:49:49;2.93;;;2.73;;
9176;SDS011;4623;54.310;10.112;2022-12-29T06:52:15;2.60;;;2.40;;
9176;SDS011;4623;54.310;10.112;2022-12-29T06:54:40;2.70;;;2.50;;
9176;SDS011;4623;54.310;10.112;2022-12-29T06:57:06;3.37;;;3.13;;
9176;SDS011;4623;54.310;10.112;2022-12-29T06:59:31;3.07;;;2.60;;
9176;SDS011;4623;54.310;10.112;2022-12-29T07:01:57;3.30;;;2.70;;
9176;SDS011;4623;54.310;10.112;2022-12-29T07:04:22;2.67;;;2.47;;
9176;SDS011;4623;54.310;10.112;2022-12-29T07:06:48;3.00;;;2.70;;
9176;SDS011;4623;54.310;10.112;2022-12-29T07:09:13;2.43;;;2.30;;
9176;SDS011;4623;54.310;10.112;2022-12-29T07:11:39;2.70;;;2.50;;
9176;SDS011;4623;54.310;10.112;2022-12-29T07:14:04;2.87;;;2.67;;
9176;SDS011;4623;54.310;10.112;2022-12-29T07:16:31;3.40;;;2.47;;
9176;SDS011;4623;54.310;10.112;2022-12-29T07:18:57;3.07;;;2.87;;
9176;SDS011;4623;54.310;10.112;2022-12-29T07:21:24;2.97;;;2.40;;
9176;SDS011;4623;54.310;10.112;2022-12-29T07:23:50;3.47;;;3.10;;
9176;SDS011;4623;54.310;10.112;2022-12-29T07:26:15;2.80;;;2.60;;
9176;SDS011;4623;54.310;10.112;2022-12-29T07:28:43;2.57;;;2.37;;
9176;SDS011;4623;54.310;10.112;2022-12-29T07:31:15;4.97;;;2.43;;
9176;SDS011;4623;54.310;10.112;2022-12-29T07:33:45;2.40;;;2.30;;
9176;SDS011;4623;54.310;10.112;2022-12-29T07:36:11;2.23;;;2.00;;
9176;SDS011;4623;54.310;10.112;2022-12-29T07:38:38;2.60;;;2.40;;
9176;SDS011;4623;54.310;10.112;2022-12-29T07:41:04;2.00;;;1.90;;
9176;SDS011;4623;54.310;10.112;2022-12-29T07:43:30;1.97;;;1.87;;
9176;SDS011;4623;54.310;10.112;2022-12-29T07:45:55;3.77;;;2.60;;
9176;SDS011;4623;54.310;10.112;2022-12-29T07:48:21;2.40;;;2.20;;
9176;SDS011;4623;54.310;10.112;2022-12-29T07:50:47;3.60;;;2.10;;
9176;SDS011;4623;54.310;10.112;2022-12-29T07:53:13;3.60;;;2.20;;
9176;SDS011;4623;54.310;10.112;2022-12-29T07:55:39;2.57;;;2.40;;
9176;SDS011;4623;54.310;10.112;2022-12-29T07:58:04;2.70;;;1.70;;
9176;SDS011;4623;54.310;10.112;2022-12-29T08:00:30;3.87;;;2.60;;
9176;SDS011;4623;54.310;10.112;2022-12-29T08:02:55;2.00;;;1.90;;
9176;SDS011;4623;54.310;10.112;2022-12-29T08:05:21;4.57;;;2.27;;
9176;SDS011;4623;54.310;10.112;2022-12-29T08:07:47;2.43;;;1.90;;
9176;SDS011;4623;54.310;10.112;2022-12-29T08:10:13;2.13;;;2.03;;
9176;SDS011;4623;54.310;10.112;2022-12-29T08:12:39;2.20;;;2.00;;
9176;SDS011;4623;54.310;10.112;2022-12-29T08:15:06;2.20;;;2.10;;
9176;SDS011;4623;54.310;10.112;2022-12-29T08:17:33;2.43;;;2.10;;
9176;SDS011;4623;54.310;10.112;2022-12-29T08:19:59;4.27;;;2.07;;
9176;SDS011;4623;54.310;10.112;2022-12-29T08:22:25;6.37;;;2.10;;
9176;SDS011;4623;54.310;10.112;2022-12-29T08:24:50;2.90;;;2.10;;
9176;SDS011;4623;54.310;10.112;2022-12-29T08:27:16;3.33;;;2.27;;
9176;SDS011;4623;54.310;10.112;2022-12-29T08:29:42;3.40;;;1.90;;
9176;SDS011;4623;54.310;10.112;2022-12-29T08:32:07;2.27;;;2.03;;
9176;SDS011;4623;54.310;10.112;2022-12-29T08:34:33;3.07;;;2.20;;
9176;SDS011;4623;54.310;10.112;2022-12-29T08:36:59;2.73;;;1.93;;
9176;SDS011;4623;54.310;10.112;2022-12-29T08:39:24;4.80;;;2.67;;
9176;SDS011;4623;54.310;10.112;2022-12-29T08:41:50;6.13;;;3.03;;
9176;SDS011;4623;54.310;10.112;2022-12-29T08:44:16;4.40;;;2.57;;
9176;SDS011;4623;54.310;10.112;2022-12-29T08:46:41;3.13;;;2.10;;
9176;SDS011;4623;54.310;10.112;2022-12-29T08:49:07;6.80;;;2.67;;
9176;SDS011;4623;54.310;10.112;2022-12-29T08:51:32;4.07;;;2.23;;
9176;SDS011;4623;54.310;10.112;2022-12-29T08:53:58;3.40;;;1.93;;
9176;SDS011;4623;54.310;10.112;2022-12-29T08:56:24;4.30;;;1.87;;
9176;SDS011;4623;54.310;10.112;2022-12-29T08:58:50;2.83;;;2.10;;
9176;SDS011;4623;54.310;10.112;2022-12-29T09:01:17;4.13;;;2.30;;
9176;SDS011;4623;54.310;10.112;2022-12-29T09:03:42;6.43;;;2.70;;
9176;SDS011;4623;54.310;10.112;2022-12-29T09:06:08;2.83;;;2.20;;
9176;SDS011;4623;54.310;10.112;2022-12-29T09:08:33;5.07;;;2.20;;
9176;SDS011;4623;54.310;10.112;2022-12-29T09:11:06;5.77;;;2.50;;
9176;SDS011;4623;54.310;10.112;2022-12-29T09:13:35;2.83;;;2.10;;
9176;SDS011;4623;54.310;10.112;2022-12-29T09:16:01;4.93;;;2.87;;
9176;SDS011;4623;54.310;10.112;2022-12-29T09:18:27;3.07;;;2.17;;
9176;SDS011;4623;54.310;10.112;2022-12-29T09:20:56;4.37;;;2.70;;
9176;SDS011;4623;54.310;10.112;2022-12-29T09:23:26;5.03;;;2.50;;
9176;SDS011;4623;54.310;10.112;2022-12-29T09:25:52;2.70;;;2.10;;
9176;SDS011;4623;54.310;10.112;2022-12-29T09:28:19;5.60;;;2.47;;
9176;SDS011;4623;54.310;10.112;2022-12-29T09:30:45;5.00;;;2.53;;
9176;SDS011;4623;54.310;10.112;2022-12-29T09:33:10;4.20;;;2.10;;
9176;SDS011;4623;54.310;10.112;2022-12-29T09:35:36;9.67;;;2.53;;
9176;SDS011;4623;54.310;10.112;2022-12-29T09:38:01;6.07;;;2.23;;
9176;SDS011;4623;54.310;10.112;2022-12-29T09:40:28;9.83;;;3.17;;
9176;SDS011;4623;54.310;10.112;2022-12-29T09:43:05;5.50;;;3.00;;
9176;SDS011;4623;54.310;10.112;2022-12-29T09:48:42;8.87;;;4.53;;
9176;SDS011;4623;54.310;10.112;2022-12-29T09:51:13;5.30;;;2.53;;
9176;SDS011;4623;54.310;10.112;2022-12-29T09:53:46;7.23;;;2.63;;
9176;SDS011;4623;54.310;10.112;2022-12-29T09:56:23;4.37;;;2.30;;
9176;SDS011;4623;54.310;10.112;2022-12-29T09:58:55;8.73;;;2.50;;
9176;SDS011;4623;54.310;10.112;2022-12-29T10:04:45;5.37;;;2.60;;
9176;SDS011;4623;54.310;10.112;2022-12-29T10:07:13;4.07;;;2.37;;
9176;SDS011;4623;54.310;10.112;2022-12-29T10:10:13;6.47;;;2.47;;
9176;SDS011;4623;54.310;10.112;2022-12-29T10:13:27;4.97;;;2.60;;
9176;SDS011;4623;54.310;10.112;2022-12-29T10:16:18;7.07;;;2.63;;
9176;SDS011;4623;54.310;10.112;2022-12-29T10:19:03;12.47;;;4.07;;
9176;SDS011;4623;54.310;10.112;2022-12-29T10:24:39;5.77;;;2.70;;
9176;SDS011;4623;54.310;10.112;2022-12-29T10:27:10;7.00;;;2.43;;
9176;SDS011;4623;54.310;10.112;2022-12-29T10:29:39;6.20;;;2.73;;
9176;SDS011;4623;54.310;10.112;2022-12-29T10:32:30;4.10;;;2.30;;
9176;SDS011;4623;54.310;10.112;2022-12-29T10:35:14;5.23;;;2.47;;
9176;SDS011;4623;54.310;10.112;2022-12-29T10:40:40;5.70;;;2.77;;
9176;SDS011;4623;54.310;10.112;2022-12-29T10:43:15;4.10;;;2.70;;
9176;SDS011;4623;54.310;10.112;2022-12-29T10:45:51;2.70;;;2.43;;
9176;SDS011;4623;54.310;10.112;2022-12-29T10:48:22;7.97;;;3.17;;
9176;SDS011;4623;54.310;10.112;2022-12-29T10:51:04;5.13;;;2.47;;
9176;SDS011;4623;54.310;10.112;2022-12-29T10:53:57;6.10;;;2.60;;
9176;SDS011;4623;54.310;10.112;2022-12-29T10:56:38;5.83;;;2.30;;
9176;SDS011;4623;54.310;10.112;2022-12-29T11:07:02;4.33;;;2.10;;
9176;SDS011;4623;54.310;10.112;2022-12-29T11:09:29;6.17;;;2.37;;
9176;SDS011;4623;54.310;10.112;2022-12-29T11:11:57;4.33;;;2.53;;
9176;SDS011;4623;54.310;10.112;2022-12-29T11:14:27;4.73;;;2.60;;
9176;SDS011;4623;54.310;10.112;2022-12-29T11:17:01;6.23;;;2.77;;
9176;SDS011;4623;54.310;10.112;2022-12-29T11:19:29;5.30;;;2.37;;
9176;SDS011;4623;54.310;10.112;2022-12-29T11:24:47;7.40;;;2.20;;
9176;SDS011;4623;54.310;10.112;2022-12-29T11:27:18;6.37;;;2.50;;
9176;SDS011;4623;54.310;10.112;2022-12-29T11:29:48;7.07;;;2.87;;
9176;SDS011;4623;54.310;10.112;2022-12-29T11:32:22;5.13;;;2.40;;
9176;SDS011;4623;54.310;10.112;2022-12-29T11:34:50;8.10;;;2.30;;
9176;SDS011;4623;54.310;10.112;2022-12-29T11:37:37;7.17;;;2.60;;
9176;SDS011;4623;54.310;10.112;2022-12-29T11:42:41;6.33;;;2.60;;
9176;SDS011;4623;54.310;10.112;2022-12-29T11:47:47;5.57;;;3.30;;
9176;SDS011;4623;54.310;10.112;2022-12-29T11:50:20;3.80;;;3.20;;
9176;SDS011;4623;54.310;10.112;2022-12-29T11:52:48;6.37;;;2.67;;
9176;SDS011;4623;54.310;10.112;2022-12-29T11:55:20;5.30;;;2.53;;
9176;SDS011;4623;54.310;10.112;2022-12-29T11:57:48;5.83;;;3.00;;
9176;SDS011;4623;54.310;10.112;2022-12-29T12:00:19;8.73;;;2.70;;
9176;SDS011;4623;54.310;10.112;2022-12-29T12:02:51;7.37;;;2.90;;
9176;SDS011;4623;54.310;10.112;2022-12-29T12:05:30;7.23;;;2.27;;
9176;SDS011;4623;54.310;10.112;2022-12-29T12:10:43;5.03;;;2.63;;
9176;SDS011;4623;54.310;10.112;2022-12-29T12:15:49;11.73;;;3.40;;
9176;SDS011;4623;54.310;10.112;2022-12-29T12:18:57;7.93;;;2.60;;
9176;SDS011;4623;54.310;10.112;2022-12-29T12:21:52;6.80;;;2.53;;
9176;SDS011;4623;54.310;10.112;2022-12-29T12:27:12;7.00;;;3.10;;
9176;SDS011;4623;54.310;10.112;2022-12-29T12:29:52;3.60;;;2.40;;
9176;SDS011;4623;54.310;10.112;2022-12-29T12:32:23;6.87;;;2.57;;
9176;SDS011;4623;54.310;10.112;2022-12-29T12:35:07;5.20;;;2.73;;
9176;SDS011;4623;54.310;10.112;2022-12-29T12:43:12;9.50;;;2.70;;
9176;SDS011;4623;54.310;10.112;2022-12-29T12:45:55;5.10;;;2.17;;
9176;SDS011;4623;54.310;10.112;2022-12-29T12:48:30;5.30;;;2.77;;
9176;SDS011;4623;54.310;10.112;2022-12-29T12:56:56;7.83;;;3.20;;
9176;SDS011;4623;54.310;10.112;2022-12-29T13:07:49;10.73;;;3.33;;
9176;SDS011;4623;54.310;10.112;2022-12-29T13:10:30;5.10;;;2.43;;
9176;SDS011;4623;54.310;10.112;2022-12-29T13:16:13;9.63;;;4.30;;
9176;SDS011;4623;54.310;10.112;2022-12-29T13:18:44;3.57;;;2.50;;
9176;SDS011;4623;54.310;10.112;2022-12-29T13:26:42;6.83;;;2.50;;
9176;SDS011;4623;54.310;10.112;2022-12-29T13:31:52;8.10;;;3.00;;
9176;SDS011;4623;54.310;10.112;2022-12-29T13:37:14;4.47;;;2.17;;
9176;SDS011;4623;54.310;10.112;2022-12-29T13:39:51;4.40;;;2.47;;
9176;SDS011;4623;54.310;10.112;2022-12-29T13:42:21;5.90;;;2.47;;
9176;SDS011;4623;54.310;10.112;2022-12-29T13:44:51;5.70;;;2.57;;
9176;SDS011;4623;54.310;10.112;2022-12-29T13:50:24;7.23;;;3.07;;
9176;SDS011;4623;54.310;10.112;2022-12-29T13:58:30;10.00;;;4.00;;
9176;SDS011;4623;54.310;10.112;2022-12-29T14:01:15;9.57;;;2.97;;
9176;SDS011;4623;54.310;10.112;2022-12-29T14:03:49;10.77;;;3.87;;
9176;SDS011;4623;54.310;10.112;2022-12-29T14:08:45;7.80;;;3.00;;
9176;SDS011;4623;54.310;10.112;2022-12-29T14:11:14;7.27;;;2.83;;
9176;SDS011;4623;54.310;10.112;2022-12-29T14:13:43;7.10;;;3.57;;
9176;SDS011;4623;54.310;10.112;2022-12-29T14:16:30;5.30;;;3.03;;
9176;SDS011;4623;54.310;10.112;2022-12-29T14:19:03;7.57;;;3.13;;
9176;SDS011;4623;54.310;10.112;2022-12-29T14:21:40;6.47;;;3.37;;
9176;SDS011;4623;54.310;10.112;2022-12-29T14:27:00;11.03;;;3.93;;
9176;SDS011;4623;54.310;10.112;2022-12-29T14:29:47;6.70;;;3.40;;
9176;SDS011;4623;54.310;10.112;2022-12-29T14:34:53;6.23;;;3.17;;
9176;SDS011;4623;54.310;10.112;2022-12-29T14:37:29;10.53;;;3.90;;
9176;SDS011;4623;54.310;10.112;2022-12-29T14:42:31;6.57;;;2.80;;
9176;SDS011;4623;54.310;10.112;2022-12-29T14:47:42;11.33;;;4.50;;
9176;SDS011;4623;54.310;10.112;2022-12-29T14:56:09;8.07;;;3.50;;
9176;SDS011;4623;54.310;10.112;2022-12-29T14:58:50;9.40;;;3.60;;
9176;SDS011;4623;54.310;10.112;2022-12-29T15:01:38;6.87;;;3.80;;
9176;SDS011;4623;54.310;10.112;2022-12-29T15:04:15;9.97;;;3.80;;
9176;SDS011;4623;54.310;10.112;2022-12-29T15:06:43;9.30;;;3.10;;
9176;SDS011;4623;54.310;10.112;2022-12-29T15:10:13;11.20;;;3.40;;
9176;SDS011;4623;54.310;10.112;2022-12-29T15:15:01;10.20;;;3.73;;
9176;SDS011;4623;54.310;10.112;2022-12-29T15:17:33;5.03;;;3.50;;
9176;SDS011;4623;54.310;10.112;2022-12-29T15:20:00;12.20;;;4.10;;
9176;SDS011;4623;54.310;10.112;2022-12-29T15:22:47;13.37;;;4.17;;
9176;SDS011;4623;54.310;10.112;2022-12-29T15:25:19;8.57;;;4.07;;
9176;SDS011;4623;54.310;10.112;2022-12-29T15:27:51;8.80;;;3.50;;
9176;SDS011;4623;54.310;10.112;2022-12-29T15:30:20;8.97;;;3.67;;
9176;SDS011;4623;54.310;10.112;2022-12-29T15:32:46;5.80;;;3.27;;
9176;SDS011;4623;54.310;10.112;2022-12-29T15:35:32;11.67;;;3.30;;
9176;SDS011;4623;54.310;10.112;2022-12-29T15:38:12;5.83;;;2.70;;
9176;SDS011;4623;54.310;10.112;2022-12-29T15:40:40;5.40;;;2.97;;
9176;SDS011;4623;54.310;10.112;2022-12-29T15:45:56;8.07;;;3.00;;
9176;SDS011;4623;54.310;10.112;2022-12-29T15:48:23;7.90;;;3.17;;
9176;SDS011;4623;54.310;10.112;2022-12-29T15:50:49;12.97;;;3.43;;
9176;SDS011;4623;54.310;10.112;2022-12-29T15:53:36;10.47;;;3.57;;
9176;SDS011;4623;54.310;10.112;2022-12-29T15:56:05;6.33;;;3.40;;
9176;SDS011;4623;54.310;10.112;2022-12-29T15:58:39;10.37;;;3.37;;
9176;SDS011;4623;54.310;10.112;2022-12-29T16:01:15;8.63;;;3.40;;
9176;SDS011;4623;54.310;10.112;2022-12-29T16:04:02;5.10;;;3.33;;
9176;SDS011;4623;54.310;10.112;2022-12-29T16:06:44;8.37;;;3.60;;
9176;SDS011;4623;54.310;10.112;2022-12-29T16:09:19;9.57;;;3.50;;
9176;SDS011;4623;54.310;10.112;2022-12-29T16:12:19;7.00;;;3.30;;
9176;SDS011;4623;54.310;10.112;2022-12-29T16:14:56;14.93;;;5.10;;
9176;SDS011;4623;54.310;10.112;2022-12-29T16:17:26;10.23;;;3.43;;
9176;SDS011;4623;54.310;10.112;2022-12-29T16:19:55;11.20;;;3.10;;
9176;SDS011;4623;54.310;10.112;2022-12-29T16:22:39;11.17;;;3.53;;
9176;SDS011;4623;54.310;10.112;2022-12-29T16:25:18;6.77;;;2.90;;
9176;SDS011;4623;54.310;10.112;2022-12-29T16:27:46;11.07;;;3.27;;
9176;SDS011;4623;54.310;10.112;2022-12-29T16:30:25;12.27;;;3.93;;
9176;SDS011;4623;54.310;10.112;2022-12-29T16:32:53;7.27;;;3.10;;
9176;SDS011;4623;54.310;10.112;2022-12-29T16:35:21;7.70;;;3.27;;
9176;SDS011;4623;54.310;10.112;2022-12-29T16:38:13;7.43;;;3.00;;
9176;SDS011;4623;54.310;10.112;2022-12-29T16:43:25;6.77;;;2.80;;
9176;SDS011;4623;54.310;10.112;2022-12-29T16:50:43;6.30;;;3.40;;
9176;SDS011;4623;54.310;10.112;2022-12-29T16:53:23;5.50;;;2.87;;
9176;SDS011;4623;54.310;10.112;2022-12-29T16:55:52;5.50;;;2.93;;
9176;SDS011;4623;54.310;10.112;2022-12-29T16:58:21;5.03;;;3.50;;
9176;SDS011;4623;54.310;10.112;2022-12-29T17:00:49;6.60;;;3.20;;
9176;SDS011;4623;54.310;10.112;2022-12-29T17:03:22;8.30;;;3.07;;
9176;SDS011;4623;54.310;10.112;2022-12-29T17:05:53;12.53;;;3.23;;
9176;SDS011;4623;54.310;10.112;2022-12-29T17:08:20;7.03;;;3.27;;
9176;SDS011;4623;54.310;10.112;2022-12-29T17:10:51;10.07;;;3.80;;
9176;SDS011;4623;54.310;10.112;2022-12-29T17:13:37;10.57;;;4.13;;
9176;SDS011;4623;54.310;10.112;2022-12-29T17:16:03;10.43;;;3.00;;
9176;SDS011;4623;54.310;10.112;2022-12-29T17:18:34;8.03;;;3.57;;
9176;SDS011;4623;54.310;10.112;2022-12-29T17:21:00;9.77;;;3.20;;
9176;SDS011;4623;54.310;10.112;2022-12-29T17:23:26;8.37;;;3.97;;
9176;SDS011;4623;54.310;10.112;2022-12-29T17:25:52;6.43;;;3.30;;
9176;SDS011;4623;54.310;10.112;2022-12-29T17:28:22;9.47;;;3.40;;
9176;SDS011;4623;54.310;10.112;2022-12-29T17:30:55;11.23;;;3.77;;
9176;SDS011;4623;54.310;10.112;2022-12-29T17:33:25;8.97;;;3.27;;
9176;SDS011;4623;54.310;10.112;2022-12-29T17:35:51;8.10;;;3.77;;
9176;SDS011;4623;54.310;10.112;2022-12-29T17:38:18;7.00;;;3.57;;
9176;SDS011;4623;54.310;10.112;2022-12-29T17:40:45;7.13;;;3.47;;
9176;SDS011;4623;54.310;10.112;2022-12-29T17:43:12;10.47;;;3.40;;